Time;durP1;ratioP1;P1;durP2;ratioP2;P2;SDS_P1;SDS_P2;PMS_P1;PMS_P2;Temp;Humidity;BMP_temperature;BMP_pressure;BME280_temperature;BME280_humidity;BME280_pressure;Samples;Min_cycle;Max_cycle;Signal;HPM_P1;HPM_P2
2021/01/01 00:00:20;;;;;;;59.38;30.58;;;;;;;4.87;98.90;96445.56;5005377;28;20452;-58
2021/01/01 00:02:46;;;;;;;54.05;26.00;;;;;;;5.10;98.62;96482.31;5005689;28;20458;-59
2021/01/01 00:05:18;;;;;;;63.10;28.90;;;;;;;5.14;98.26;96482.44;5005643;28;20044;-57
2021/01/01 00:07:44;;;;;;;54.03;28.67;;;;;;;5.23;97.77;96486.59;5005819;28;20519;-63
2021/01/01 00:10:10;;;;;;;46.20;25.15;;;;;;;5.09;97.55;96458.75;5005714;28;20030;-61
2021/01/01 00:12:36;;;;;;;60.13;28.27;;;;;;;5.19;97.37;96484.91;5005028;28;20041;-62
2021/01/01 00:15:04;;;;;;;55.28;27.13;;;;;;;5.32;97.22;96483.72;5005426;28;20507;-61
2021/01/01 00:17:31;;;;;;;110.82;46.28;;;;;;;5.37;96.07;96492.50;5005049;28;20037;-62
2021/01/01 00:19:56;;;;;;;97.20;40.97;;;;;;;5.13;96.12;96470.66;5005035;28;20108;-63
2021/01/01 00:22:21;;;;;;;64.43;33.35;;;;;;;4.81;96.50;96441.47;5005643;28;20481;-62
2021/01/01 00:24:47;;;;;;;52.90;27.85;;;;;;;5.15;95.09;96500.50;5005974;28;20030;-63
2021/01/01 00:27:12;;;;;;;63.05;31.45;;;;;;;4.97;96.81;96510.16;5005091;28;20025;-62
2021/01/01 00:29:38;;;;;;;54.75;27.33;;;;;;;5.02;96.90;96507.16;5005111;28;20049;-62
2021/01/01 00:32:05;;;;;;;45.40;23.92;;;;;;;4.86;97.79;96489.81;5005063;28;20038;-62
2021/01/01 00:34:31;;;;;;;64.60;31.65;;;;;;;4.98;97.45;96514.50;5004850;28;20025;-63
2021/01/01 00:36:58;;;;;;;72.50;34.78;;;;;;;4.92;97.29;96513.13;5005113;28;20037;-62
2021/01/01 00:39:24;;;;;;;108.63;53.58;;;;;;;4.72;95.65;96486.66;5004701;28;20029;-61
2021/01/01 00:41:49;;;;;;;108.70;53.53;;;;;;;4.35;96.16;96445.59;5004707;28;20038;-62
2021/01/01 00:44:14;;;;;;;107.20;52.78;;;;;;;4.71;96.66;96518.00;5004936;28;20030;-62
2021/01/01 00:46:40;;;;;;;98.97;49.35;;;;;;;3.52;96.97;96334.13;5004195;28;20076;-62
2021/01/01 00:49:05;;;;;;;85.05;45.15;;;;;;;4.66;97.52;96522.53;5019798;28;20045;-63
2021/01/01 00:51:32;;;;;;;94.97;45.65;;;;;;;4.70;97.51;96522.66;5004575;28;20046;-63
2021/01/01 00:54:01;;;;;;;97.78;49.45;;;;;;;4.44;98.21;96498.34;5004779;28;20049;-62
2021/01/01 00:56:27;;;;;;;156.15;71.18;;;;;;;4.61;98.05;96525.56;5008881;28;20057;-62
2021/01/01 00:58:54;;;;;;;115.15;55.47;;;;;;;4.48;97.89;96503.94;5011031;28;20610;-64
2021/01/01 01:01:24;;;;;;;108.05;55.78;;;;;;;4.43;97.42;96502.25;5009337;28;20417;-63
2021/01/01 01:03:54;;;;;;;128.32;66.95;;;;;;;4.45;97.92;96521.91;5011165;28;20533;-62
2021/01/01 01:06:21;;;;;;;149.27;73.40;;;;;;;4.43;98.31;96532.41;5010942;28;20042;-63
2021/01/01 01:08:47;;;;;;;147.32;75.65;;;;;;;3.41;98.02;96410.44;5026039;28;20207;-63
2021/01/01 01:11:13;;;;;;;138.18;70.13;;;;;;;4.33;98.83;96534.81;5010882;28;20398;-63
2021/01/01 01:13:38;;;;;;;122.13;61.63;;;;;;;3.90;98.49;96480.56;5010927;28;20041;-63
2021/01/01 01:16:05;;;;;;;115.40;56.63;;;;;;;4.36;98.27;96539.63;5010791;28;20033;-62
2021/01/01 01:18:31;;;;;;;78.03;38.05;;;;;;;4.09;98.97;96501.91;5011429;28;20042;-62
2021/01/01 01:20:57;;;;;;;51.33;28.27;;;;;;;3.96;98.85;96481.94;5025766;28;20033;-62
2021/01/01 01:23:22;;;;;;;54.15;27.48;;;;;;;4.25;98.77;96544.72;5009387;28;20040;-62
2021/01/01 01:25:48;;;;;;;40.42;20.83;;;;;;;4.09;100.00;96540.28;5010869;28;20041;-62
2021/01/01 01:28:14;;;;;;;40.38;18.98;;;;;;;3.92;100.00;96541.25;5011121;28;20978;-63
2021/01/01 01:30:39;;;;;;;56.15;26.95;;;;;;;3.58;100.00;96486.09;5011539;28;20588;-62
2021/01/01 01:33:05;;;;;;;57.05;25.20;;;;;;;3.91;100.00;96534.19;5010961;28;20038;-62
2021/01/01 01:35:30;;;;;;;62.67;26.02;;;;;;;3.87;100.00;96538.75;5010926;28;20045;-62
2021/01/01 01:37:56;;;;;;;61.00;29.50;;;;;;;3.92;100.00;96541.25;5010771;28;20120;-62
2021/01/01 01:40:21;;;;;;;78.28;38.47;;;;;;;3.57;100.00;96485.31;5009060;28;20096;-63
2021/01/01 01:42:47;;;;;;;47.08;23.40;;;;;;;3.60;100.00;96479.16;5025852;28;20041;-62
2021/01/01 01:45:13;;;;;;;38.92;20.95;;;;;;;3.95;100.00;96529.63;5010901;28;20034;-62
2021/01/01 01:47:40;;;;;;;52.00;23.15;;;;;;;3.30;100.00;96450.34;5011332;28;20049;-62
2021/01/01 01:50:06;;;;;;;59.33;29.70;;;;;;;3.79;100.00;96552.56;5025275;28;20045;-62
2021/01/01 01:52:33;;;;;;;80.78;41.33;;;;;;;3.37;99.90;96493.56;5010671;28;20042;-63
2021/01/01 01:55:00;;;;;;;94.50;48.22;;;;;;;3.76;100.00;96559.47;5010485;28;20570;-64
2021/01/01 01:57:26;;;;;;;65.75;35.17;;;;;;;3.28;100.00;96510.06;5010699;28;20058;-63
2021/01/01 01:59:55;;;;;;;46.00;24.80;;;;;;;3.60;100.00;96549.53;5010795;28;20056;-62
2021/01/01 02:02:24;;;;;;;51.92;27.67;;;;;;;3.46;100.00;96551.75;5010884;28;20771;-64
2021/01/01 02:04:49;;;;;;;64.60;33.58;;;;;;;3.04;100.00;96537.31;5010706;28;20033;-62
2021/01/01 02:07:15;;;;;;;59.45;32.85;;;;;;;2.67;100.00;96495.28;5007967;28;20079;-62
2021/01/01 02:09:40;;;;;;;47.33;24.58;;;;;;;3.29;100.00;96563.66;5005890;28;20480;-62
2021/01/01 02:12:07;;;;;;;39.45;20.77;;;;;;;3.30;100.00;96568.00;5005785;28;20409;-63
2021/01/01 02:14:33;;;;;;;34.35;17.13;;;;;;;3.22;100.00;96560.69;5007412;28;20038;-63
2021/01/01 02:16:58;;;;;;;29.50;14.57;;;;;;;3.01;100.00;96577.09;5005836;28;20095;-62
2021/01/01 02:19:23;;;;;;;27.15;13.27;;;;;;;3.08;100.00;96562.88;5007591;28;20038;-62
2021/01/01 02:21:49;;;;;;;20.45;9.50;;;;;;;2.62;100.00;96497.44;5007114;28;20030;-62
2021/01/01 02:24:15;;;;;;;18.02;8.52;;;;;;;3.25;100.00;96565.47;5007150;28;20026;-62
2021/01/01 02:26:40;;;;;;;19.17;8.68;;;;;;;2.84;100.00;96499.84;5007205;28;20041;-63
2021/01/01 02:29:06;;;;;;;18.23;10.07;;;;;;;3.24;100.00;96574.03;5007292;28;20045;-63
2021/01/01 02:31:31;;;;;;;36.92;18.98;;;;;;;3.29;100.00;96577.34;5021957;28;20053;-62
2021/01/01 02:33:57;;;;;;;47.88;23.55;;;;;;;3.24;99.75;96574.81;5007196;28;20465;-63
2021/01/01 02:36:22;;;;;;;47.90;24.58;;;;;;;3.22;99.02;96581.75;5005021;28;20068;-62
2021/01/01 02:38:48;;;;;;;53.47;25.48;;;;;;;3.18;99.29;96575.38;5007044;28;20069;-62
2021/01/01 02:41:14;;;;;;;51.95;26.20;;;;;;;3.13;98.94;96576.34;5005005;28;20029;-62
2021/01/01 02:43:39;;;;;;;50.10;25.23;;;;;;;2.53;99.99;96483.81;5005188;28;20429;-62
2021/01/01 02:46:05;;;;;;;50.85;24.95;;;;;;;2.98;100.00;96579.69;5006776;28;20532;-62
2021/01/01 02:48:30;;;;;;;54.20;26.25;;;;;;;3.03;100.00;96584.97;5007079;28;20084;-62
2021/01/01 02:50:56;;;;;;;25.55;13.52;;;;;;;3.04;100.00;96581.09;5006828;28;20029;-62
2021/01/01 02:53:21;;;;;;;17.98;7.70;;;;;;;2.54;100.00;96501.03;5006950;28;20046;-62
2021/01/01 02:55:50;;;;;;;25.13;10.75;;;;;;;3.00;100.00;96563.75;5005221;28;20034;-63
2021/01/01 02:58:16;;;;;;;28.77;13.05;;;;;;;3.06;100.00;96578.81;5006378;28;20046;-63
2021/01/01 03:00:46;;;;;;;35.30;15.55;;;;;;;2.97;100.00;96580.84;5006231;28;20030;-62
2021/01/01 03:03:11;;;;;;;42.08;16.70;;;;;;;3.06;100.00;96587.03;5007175;28;20038;-63
2021/01/01 03:05:37;;;;;;;27.65;13.00;;;;;;;3.07;100.00;96586.69;5004705;28;20085;-63
2021/01/01 03:08:03;;;;;;;26.65;10.48;;;;;;;2.44;99.86;96483.09;5007022;28;20116;-62
2021/01/01 03:10:28;;;;;;;17.88;10.00;;;;;;;2.88;99.46;96566.41;5005087;28;20156;-62
2021/01/01 03:12:54;;;;;;;23.95;9.90;;;;;;;2.96;99.86;96598.34;5006274;28;20034;-63
2021/01/01 03:15:19;;;;;;;21.20;8.85;;;;;;;2.91;100.00;96588.41;5006153;28;20041;-61
2021/01/01 03:17:45;;;;;;;29.30;10.40;;;;;;;2.94;100.00;96586.97;5006472;28;20026;-62
2021/01/01 03:20:11;;;;;;;30.80;12.80;;;;;;;2.97;99.69;96591.78;5006056;28;20030;-63
2021/01/01 03:22:36;;;;;;;20.10;9.43;;;;;;;2.97;99.02;96589.03;5006349;28;20030;-61
2021/01/01 03:25:06;;;;;;;13.73;7.57;;;;;;;2.94;98.25;96586.97;5006092;28;20125;-62
2021/01/01 03:27:32;;;;;;;14.73;7.72;;;;;;;2.44;98.63;96517.81;5005852;28;20417;-63
2021/01/01 03:29:58;;;;;;;19.88;9.15;;;;;;;2.82;99.29;96589.59;5005937;28;20036;-62
2021/01/01 03:32:24;;;;;;;31.65;15.05;;;;;;;2.79;99.28;96585.63;5005851;28;20580;-61
2021/01/01 03:34:49;;;;;;;42.00;21.35;;;;;;;2.78;99.33;96586.72;5005814;28;20033;-62
2021/01/01 03:37:15;;;;;;;43.45;20.67;;;;;;;2.55;100.00;96554.56;5006100;28;20034;-62
2021/01/01 03:39:40;;;;;;;63.92;27.75;;;;;;;2.40;99.99;96536.00;5005875;28;20464;-61
2021/01/01 03:42:09;;;;;;;64.47;28.42;;;;;;;2.80;99.02;96580.94;5005529;28;20505;-63
2021/01/01 03:44:35;;;;;;;58.45;28.42;;;;;;;2.71;99.75;96582.94;5005692;28;20592;-61
2021/01/01 03:47:02;;;;;;;37.83;19.48;;;;;;;-0.14;99.86;96139.41;5020344;28;20084;-62
2021/01/01 03:49:27;;;;;;;26.77;12.25;;;;;;;2.54;100.00;96588.50;5020668;28;20062;-61
2021/01/01 03:51:53;;;;;;;18.90;8.48;;;;;;;2.66;100.00;96602.25;5004017;28;20112;-61
2021/01/01 03:54:18;;;;;;;18.77;8.98;;;;;;;2.72;98.95;96598.19;5005712;28;20626;-63
2021/01/01 03:56:43;;;;;;;44.92;23.27;;;;;;;2.76;98.42;96601.88;5005535;28;20038;-62
2021/01/01 03:59:09;;;;;;;58.50;26.77;;;;;;;2.49;97.92;96569.53;5005372;28;20042;-62
2021/01/01 04:01:34;;;;;;;49.03;26.05;;;;;;;2.00;98.92;96512.91;5005405;28;20091;-59
2021/01/01 04:03:59;;;;;;;23.88;11.98;;;;;;;1.90;99.08;96521.50;5004035;28;20437;-61
2021/01/01 04:06:25;;;;;;;19.48;10.65;;;;;;;2.56;98.79;96603.44;5005345;28;20034;-59
2021/01/01 04:08:50;;;;;;;22.95;9.02;;;;;;;2.55;98.24;96601.03;5005510;28;20037;-58
2021/01/01 04:11:16;;;;;;;25.63;11.18;;;;;;;2.54;98.02;96610.38;5005263;28;20535;-58
2021/01/01 04:13:41;;;;;;;35.25;15.48;;;;;;;2.52;98.73;96624.38;5005287;28;20038;-61
2021/01/01 04:16:07;;;;;;;40.60;20.73;;;;;;;2.47;98.75;96621.81;5005309;28;20112;-58
2021/01/01 04:18:32;;;;;;;39.78;21.58;;;;;;;2.47;98.84;96626.47;5003993;28;20622;-58
2021/01/01 04:20:58;;;;;;;42.03;19.92;;;;;;;2.45;98.92;96636.94;5005275;28;20465;-60
2021/01/01 04:23:23;;;;;;;41.35;22.05;;;;;;;2.48;97.42;96649.94;5020435;28;20161;-58
2021/01/01 04:25:48;;;;;;;40.72;21.67;;;;;;;2.31;98.77;96639.09;5005706;28;20034;-58
2021/01/01 04:28:14;;;;;;;45.60;22.70;;;;;;;2.25;100.00;96654.03;5005648;28;20068;-58
2021/01/01 04:30:39;;;;;;;46.17;23.55;;;;;;;2.23;100.00;96642.66;5003248;28;20038;-62
2021/01/01 04:33:05;;;;;;;52.65;25.13;;;;;;;2.25;100.00;96643.13;5003816;28;20104;-59
2021/01/01 04:35:30;;;;;;;58.17;30.30;;;;;;;1.80;100.00;96581.91;5005310;28;20124;-58
2021/01/01 04:37:55;;;;;;;54.47;26.10;;;;;;;1.98;100.00;96635.31;5003895;28;20071;-58
2021/01/01 04:40:21;;;;;;;47.00;24.33;;;;;;;2.27;100.00;96649.88;5005137;28;20499;-60
2021/01/01 04:42:47;;;;;;;40.92;18.90;;;;;;;2.27;100.00;96665.44;5003875;28;20033;-58
2021/01/01 04:45:13;;;;;;;36.20;17.63;;;;;;;2.21;100.00;96648.44;5004927;28;20650;-58
2021/01/01 04:47:39;;;;;;;34.65;16.20;;;;;;;2.26;100.00;96652.94;5003442;28;20120;-59
2021/01/01 04:50:06;;;;;;;42.20;17.73;;;;;;;2.28;100.00;96645.19;5003360;28;20539;-60
2021/01/01 04:52:33;;;;;;;30.27;13.80;;;;;;;2.34;99.53;96643.91;5005062;28;20038;-59
2021/01/01 04:54:59;;;;;;;30.20;13.13;;;;;;;2.33;99.55;96647.75;5004828;28;20052;-58
2021/01/01 04:57:26;;;;;;;24.48;12.63;;;;;;;2.43;98.63;96644.66;5004367;28;20081;-59
2021/01/01 04:59:51;;;;;;;26.98;12.95;;;;;;;2.37;98.90;96654.19;5019648;28;20038;-59
2021/01/01 05:02:17;;;;;;;36.90;18.35;;;;;;;2.21;99.23;96661.31;5002762;28;20088;-59
2021/01/01 05:04:46;;;;;;;36.90;20.50;;;;;;;2.19;98.74;96669.00;5004796;28;20042;-59
2021/01/01 05:07:16;;;;;;;35.38;18.67;;;;;;;2.30;97.05;96673.81;5002932;28;20484;-60
2021/01/01 05:09:42;;;;;;;32.75;18.50;;;;;;;2.13;97.22;96675.78;5004554;28;20026;-60
2021/01/01 05:12:08;;;;;;;41.05;19.70;;;;;;;2.00;98.08;96676.78;5004671;28;20117;-59
2021/01/01 05:14:34;;;;;;;41.70;21.20;;;;;;;1.97;98.53;96678.22;5004913;28;20057;-59
2021/01/01 05:17:00;;;;;;;50.90;24.92;;;;;;;1.09;99.00;96554.22;5004688;28;20501;-58
2021/01/01 05:19:43;;;;;;;60.17;29.55;;;;;;;2.01;100.00;96689.31;5004581;28;20521;-60
2021/01/01 05:22:11;;;;;;;62.47;31.55;;;;;;;1.88;100.00;96669.22;5004706;28;20512;-59
2021/01/01 05:24:38;;;;;;;94.38;44.53;;;;;;;1.27;100.00;96585.84;5004515;28;20062;-59
2021/01/01 05:27:15;;;;;;;78.05;34.13;;;;;;;2.11;100.00;96708.06;5019286;28;20144;-59
2021/01/01 05:29:52;;;;;;;48.33;22.30;;;;;;;1.74;100.00;96644.03;5002902;28;20048;-59
2021/01/01 05:32:22;;;;;;;27.50;11.57;;;;;;;2.03;99.99;96697.97;5004480;28;20038;-59
2021/01/01 05:34:48;;;;;;;21.33;10.20;;;;;;;1.68;100.00;96660.91;5004894;28;20041;-59
2021/01/01 05:37:26;;;;;;;19.55;9.10;;;;;;;1.84;100.00;96713.88;5004125;28;20037;-59
2021/01/01 05:40:02;;;;;;;13.88;7.50;;;;;;;1.88;100.00;96720.31;5002853;28;20037;-60
2021/01/01 05:42:27;;;;;;;23.20;9.35;;;;;;;1.39;99.30;96656.91;5005123;28;20044;-61
2021/01/01 05:44:53;;;;;;;18.58;9.80;;;;;;;1.79;98.94;96716.81;5007983;28;20034;-59
2021/01/01 05:47:18;;;;;;;22.23;11.30;;;;;;;1.86;98.92;96737.03;5008222;28;20107;-58
2021/01/01 05:49:43;;;;;;;25.73;13.23;;;;;;;1.94;99.05;96746.34;5008492;28;20034;-61
2021/01/01 05:52:24;;;;;;;32.90;16.38;;;;;;;1.93;99.01;96726.41;5006737;28;20451;-61
2021/01/01 05:55:03;;;;;;;52.60;22.73;;;;;;;1.97;98.89;96721.94;5006450;28;20034;-58
2021/01/01 05:57:39;;;;;;;56.55;30.02;;;;;;;1.68;97.77;96690.94;5007975;28;20161;-59
2021/01/01 06:00:06;;;;;;;59.00;28.30;;;;;;;1.87;99.26;96727.72;5005855;28;20033;-58
2021/01/01 06:02:56;;;;;;;114.22;44.60;;;;;;;1.93;99.19;96731.09;5007999;28;20457;-60
2021/01/01 06:05:27;;;;;;;78.15;34.42;;;;;;;1.26;99.08;96640.72;5006681;28;20057;-60
2021/01/01 06:07:55;;;;;;;73.65;28.90;;;;;;;0.98;98.93;96599.31;5007963;28;20029;-58
2021/01/01 06:10:22;;;;;;;81.88;28.65;;;;;;;2.02;97.65;96757.28;5007451;28;20030;-59
2021/01/01 06:12:51;;;;;;;87.00;31.58;;;;;;;1.63;98.45;96688.38;5007673;28;20038;-59
2021/01/01 06:15:22;;;;;;;96.25;35.30;;;;;;;2.12;99.02;96758.88;5007818;28;20117;-59
2021/01/01 06:17:52;;;;;;;70.75;27.17;;;;;;;2.19;98.61;96748.22;5022632;28;20493;-59
2021/01/01 06:20:19;;;;;;;109.47;42.30;;;;;;;1.59;98.56;96636.38;5007293;28;20036;-60
2021/01/01 06:23:07;;;;;;;97.38;40.35;;;;;;;2.32;98.07;96750.00;5007578;28;20026;-59
2021/01/01 06:25:35;;;;;;;71.18;31.33;;;;;;;1.75;96.06;96685.81;5005615;28;20196;-59
2021/01/01 06:28:00;;;;;;;60.47;28.50;;;;;;;2.28;94.86;96776.34;5007548;28;20052;-59
2021/01/01 06:30:27;;;;;;;51.13;24.45;;;;;;;2.30;94.75;96774.09;5007130;28;20034;-59
2021/01/01 06:32:53;;;;;;;39.88;18.88;;;;;;;1.75;97.44;96721.28;5007011;28;20120;-59
2021/01/01 06:35:20;;;;;;;37.40;17.25;;;;;;;2.34;96.98;96767.66;5006906;28;20432;-59
2021/01/01 06:37:48;;;;;;;23.80;11.55;;;;;;;2.29;97.78;96780.69;5007408;28;20696;-59
2021/01/01 06:40:22;;;;;;;20.83;10.52;;;;;;;2.34;97.63;96780.53;5007297;28;20033;-61
2021/01/01 06:42:50;;;;;;;18.63;7.65;;;;;;;2.53;95.65;96775.50;5007117;28;20076;-60
2021/01/01 06:45:41;;;;;;;24.33;11.70;;;;;;;2.69;95.05;96787.50;5006655;28;20402;-59
2021/01/01 06:48:22;;;;;;;49.15;24.77;;;;;;;2.52;94.74;96738.34;5005704;28;20046;-60
2021/01/01 06:50:53;;;;;;;44.67;21.48;;;;;;;2.50;94.87;96743.34;5007089;28;20042;-59
2021/01/01 06:53:26;;;;;;;35.65;18.38;;;;;;;2.79;94.89;96787.16;5006856;28;20042;-60
2021/01/01 06:55:51;;;;;;;31.48;15.50;;;;;;;2.92;95.21;96792.41;5006612;28;20851;-59
2021/01/01 06:58:26;;;;;;;28.88;14.35;;;;;;;2.80;94.62;96734.06;5006635;28;20081;-59
2021/01/01 07:00:54;;;;;;;23.35;12.80;;;;;;;3.39;93.27;96784.97;5005201;28;20061;-59
2021/01/01 07:03:25;;;;;;;26.85;14.00;;;;;;;3.65;92.89;96802.03;5005276;28;20037;-59
2021/01/01 07:05:51;;;;;;;18.45;9.43;;;;;;;3.84;92.08;96796.91;5004567;28;20108;-59
2021/01/01 07:08:42;;;;;;;15.52;8.40;;;;;;;4.10;89.50;96799.47;5006940;28;20040;-60
2021/01/01 07:11:13;;;;;;;19.08;9.02;;;;;;;4.28;89.25;96796.22;5006022;28;20048;-59
2021/01/01 07:13:44;;;;;;;22.27;12.15;;;;;;;4.37;88.64;96794.25;5004813;28;20048;-60
2021/01/01 07:16:10;;;;;;;23.33;11.70;;;;;;;4.42;87.12;96752.91;5004137;28;20255;-60
2021/01/01 07:18:36;;;;;;;45.70;20.45;;;;;;;4.60;86.93;96765.28;5005932;28;20646;-59
2021/01/01 07:21:06;;;;;;;91.63;46.38;;;;;;;4.93;86.83;96789.16;5005931;28;20029;-60
2021/01/01 07:23:32;;;;;;;91.53;46.38;;;;;;;4.57;86.46;96691.09;5006268;28;20046;-60
2021/01/01 07:25:58;;;;;;;118.43;62.55;;;;;;;5.39;84.32;96791.50;5006009;28;20116;-60
2021/01/01 07:28:25;;;;;;;105.78;55.88;;;;;;;4.94;82.77;96733.13;5005929;28;20042;-60
2021/01/01 07:30:51;;;;;;;110.50;58.30;;;;;;;5.50;82.66;96793.41;5004385;28;20076;-61
2021/01/01 07:33:22;;;;;;;93.97;53.28;;;;;;;5.86;80.59;96798.91;5006236;28;20034;-62
2021/01/01 07:35:58;;;;;;;69.80;39.03;;;;;;;5.95;79.38;96798.78;5005648;28;20065;-60
2021/01/01 07:38:25;;;;;;;56.13;32.17;;;;;;;6.06;78.21;96800.72;5005915;28;20077;-60
2021/01/01 07:40:51;;;;;;;62.08;33.65;;;;;;;6.11;79.38;96799.69;5005878;28;20343;-60
2021/01/01 07:43:17;;;;;;;60.67;35.22;;;;;;;5.91;79.47;96753.91;5021287;28;20422;-61
2021/01/01 07:45:42;;;;;;;65.07;37.95;;;;;;;6.24;78.78;96765.50;5005775;28;20046;-62
2021/01/01 07:48:08;;;;;;;71.28;36.97;;;;;;;6.56;76.49;96786.44;5021210;28;20121;-61
2021/01/01 07:50:35;;;;;;;77.70;48.35;;;;;;;6.58;76.27;96778.66;5003954;28;20056;-60
2021/01/01 07:53:05;;;;;;;85.63;51.17;;;;;;;7.06;75.60;96813.38;5004244;28;20137;-61
2021/01/01 07:55:32;;;;;;;80.90;46.58;;;;;;;6.68;75.23;96727.81;5005430;28;20060;-60
2021/01/01 07:58:14;;;;;;;100.55;55.40;;;;;;;7.42;73.48;96816.72;5005684;28;20077;-62
2021/01/01 08:00:41;;;;;;;112.65;60.75;;;;;;;7.25;71.88;96775.75;5003763;28;20045;-61
2021/01/01 08:03:08;;;;;;;141.25;78.38;;;;;;;7.76;71.06;96817.13;5005904;28;20041;-61
2021/01/01 08:05:34;;;;;;;79.45;45.35;;;;;;;7.95;70.91;96825.47;5002830;28;20061;-60
2021/01/01 08:08:18;;;;;;;57.25;32.85;;;;;;;7.58;72.70;96831.28;5005709;28;20044;-59
2021/01/01 08:10:45;;;;;;;46.17;27.55;;;;;;;6.71;79.49;96818.72;5005451;28;20535;-59
2021/01/01 08:13:17;;;;;;;43.20;23.65;;;;;;;6.84;80.14;96834.03;5005552;28;20540;-60
2021/01/01 08:15:43;;;;;;;29.33;16.73;;;;;;;6.71;79.77;96810.47;5004957;28;20116;-60
2021/01/01 08:18:18;;;;;;;33.78;19.50;;;;;;;6.54;79.74;96764.00;5005691;28;20472;-60
2021/01/01 08:20:46;;;;;;;31.38;15.82;;;;;;;7.44;78.52;96843.91;5004999;28;20100;-60
2021/01/01 08:23:19;;;;;;;22.80;11.50;;;;;;;7.47;77.95;96844.00;5005422;28;20514;-59
2021/01/01 08:25:47;;;;;;;24.33;12.82;;;;;;;7.42;77.63;96848.97;5004877;28;20065;-61
2021/01/01 08:28:17;;;;;;;20.25;12.15;;;;;;;7.51;78.78;96850.38;5005578;28;20026;-60
2021/01/01 08:30:44;;;;;;;21.67;12.70;;;;;;;7.73;77.12;96858.03;5004599;28;20045;-60
2021/01/01 08:33:10;;;;;;;22.80;12.50;;;;;;;7.10;77.23;96740.72;5003581;28;20041;-59
2021/01/01 08:35:36;;;;;;;20.80;11.60;;;;;;;7.87;76.81;96854.03;5004510;28;20041;-60
2021/01/01 08:38:20;;;;;;;23.48;12.73;;;;;;;8.05;76.01;96849.72;5005428;28;20062;-60
2021/01/01 08:40:53;;;;;;;26.75;13.05;;;;;;;8.35;75.32;96845.31;5004645;28;20033;-61
2021/01/01 08:43:18;;;;;;;;;;;;;;;8.49;74.30;96845.63;5005783;28;20065;-60
2021/01/01 08:45:44;;;;;;;49.05;26.23;;;;;;;8.52;73.68;96847.69;5019638;28;19995;-60
2021/01/01 08:48:10;;;;;;;33.33;16.15;;;;;;;8.81;73.91;96847.09;5003657;28;20172;-60
2021/01/01 08:50:46;;;;;;;33.00;19.08;;;;;;;8.90;72.13;96828.34;5004490;28;20413;-60
2021/01/01 08:53:12;;;;;;;50.75;23.52;;;;;;;8.87;71.35;96823.56;5004965;28;20088;-60
2021/01/01 08:55:38;;;;;;;18.92;10.63;;;;;;;8.83;71.16;96844.78;5004597;28;20494;-59
2021/01/01 08:58:11;;;;;;;13.55;7.93;;;;;;;9.05;70.46;96842.09;5004745;28;20077;-60
2021/01/01 09:00:38;;;;;;;13.18;7.80;;;;;;;8.89;72.16;96843.31;5004731;28;20100;-61
2021/01/01 09:03:05;;;;;;;32.22;12.25;;;;;;;9.01;71.87;96829.34;5005072;28;20042;-60
2021/01/01 09:05:31;;;;;;;35.72;17.60;;;;;;;8.75;69.80;96738.13;5004521;28;20103;-59
2021/01/01 09:08:16;;;;;;;112.25;50.72;;;;;;;9.68;69.31;96839.69;5003445;28;20037;-61
2021/01/01 09:10:46;;;;;;;30.60;15.35;;;;;;;9.94;66.75;96845.25;5019771;28;20058;-59
2021/01/01 09:13:15;;;;;;;14.32;8.15;;;;;;;9.96;64.11;96837.38;5005001;28;20041;-59
2021/01/01 09:15:42;;;;;;;46.08;23.27;;;;;;;9.75;63.90;96776.19;5004799;28;20046;-58
2021/01/01 09:18:08;;;;;;;57.20;32.72;;;;;;;10.36;62.65;96842.38;5008183;28;20505;-59
2021/01/01 09:20:35;;;;;;;11.15;6.50;;;;;;;10.28;61.79;96841.47;5008360;28;20040;-59
2021/01/01 09:23:02;;;;;;;16.48;7.28;;;;;;;9.88;60.39;96829.34;5008814;28;20180;-59
2021/01/01 09:25:31;;;;;;;14.00;7.90;;;;;;;10.40;61.08;96848.75;5008215;28;20057;-61
2021/01/01 09:27:58;;;;;;;9.85;6.20;;;;;;;7.78;60.04;96395.78;5008757;28;20045;-59
2021/01/01 09:30:35;;;;;;;19.33;10.27;;;;;;;10.72;59.64;96840.91;5008032;28;20104;-59
2021/01/01 09:33:02;;;;;;;14.02;5.72;;;;;;;10.91;58.28;96837.97;5008224;28;20136;-60
2021/01/01 09:35:29;;;;;;;7.85;4.10;;;;;;;10.81;57.82;96777.69;5006155;28;20030;-60
2021/01/01 09:38:03;;;;;;;9.85;6.38;;;;;;;11.45;57.75;96847.31;5007761;28;20037;-61
2021/01/01 09:40:34;;;;;;;10.85;5.80;;;;;;;11.29;57.29;96798.78;4998430;28;20053;-59
2021/01/01 09:43:04;;;;;;;9.07;5.82;;;;;;;11.67;57.16;96845.56;5023051;28;20486;-60
2021/01/01 09:45:31;;;;;;;15.00;7.72;;;;;;;11.83;55.85;96843.31;5007718;28;20340;-60
2021/01/01 09:47:56;;;;;;;12.52;7.00;;;;;;;11.83;55.84;96835.00;5006514;28;20532;-60
2021/01/01 09:50:22;;;;;;;9.27;3.97;;;;;;;11.59;55.35;96832.75;5007495;28;20067;-59
2021/01/01 09:52:47;;;;;;;6.10;3.50;;;;;;;11.65;53.05;96834.06;5007368;28;20559;-60
2021/01/01 09:55:13;;;;;;;18.85;9.32;;;;;;;11.83;54.85;96823.91;5007081;28;20430;-60
2021/01/01 09:57:38;;;;;;;3.85;3.08;;;;;;;11.50;51.95;96754.63;5021802;28;20425;-60
2021/01/01 10:00:09;;;;;;;5.88;3.83;;;;;;;12.03;53.88;96823.28;5007326;28;20117;-60
2021/01/01 10:02:34;;;;;;;9.15;5.15;;;;;;;12.27;55.18;96863.50;5007852;28;20034;-61
2021/01/01 10:05:00;;;;;;;10.00;5.60;;;;;;;12.22;53.59;96797.22;5007588;28;20041;-61
2021/01/01 10:07:29;;;;;;;6.28;3.92;;;;;;;12.54;51.04;96820.44;5007333;28;20558;-60
2021/01/01 10:09:55;;;;;;;8.10;4.55;;;;;;;12.57;49.21;96811.31;5007379;28;20142;-59
2021/01/01 10:12:21;;;;;;;4.40;3.42;;;;;;;12.34;47.63;96760.81;5005559;28;20041;-58
2021/01/01 10:14:46;;;;;;;5.53;3.67;;;;;;;12.71;47.92;96822.50;5007502;28;20041;-60
2021/01/01 10:17:12;;;;;;;8.38;4.57;;;;;;;12.74;49.70;96818.19;5007256;28;20022;-58
2021/01/01 10:19:41;;;;;;;7.07;4.82;;;;;;;12.60;48.28;96788.31;5006745;28;20033;-58
2021/01/01 10:22:07;;;;;;;6.68;4.50;;;;;;;12.86;48.53;96815.03;4673196;28;5001935;-59
2021/01/01 10:24:33;;;;;;;5.43;4.28;;;;;;;12.82;48.35;96798.34;5006797;28;20040;-61
2021/01/01 10:26:59;;;;;;;7.25;4.15;;;;;;;13.07;47.06;96810.38;5006919;28;20034;-61
2021/01/01 10:29:25;;;;;;;7.70;3.95;;;;;;;12.11;46.96;96646.44;5021362;28;20556;-60
2021/01/01 10:31:50;;;;;;;5.35;3.20;;;;;;;12.54;46.79;96709.31;5006884;28;20042;-60
2021/01/01 10:34:16;;;;;;;6.13;3.78;;;;;;;12.59;45.72;96694.25;5007102;28;20421;-59
2021/01/01 10:36:41;;;;;;;7.00;2.95;;;;;;;13.06;45.24;96797.69;5006856;28;20477;-60
2021/01/01 10:39:08;;;;;;;5.97;2.80;;;;;;;13.08;45.38;96792.53;5006960;28;20038;-60
2021/01/01 10:41:35;;;;;;;4.75;3.55;;;;;;;13.34;43.75;96792.19;5004913;28;20479;-59
2021/01/01 10:44:01;;;;;;;3.58;2.47;;;;;;;12.92;42.04;96719.75;5006964;28;20033;-61
2021/01/01 10:46:27;;;;;;;3.90;2.53;;;;;;;13.51;40.76;96791.41;5006704;28;20076;-60
2021/01/01 10:48:52;;;;;;;2.95;2.50;;;;;;;13.40;39.99;96765.56;5005362;28;20111;-60
2021/01/01 10:51:22;;;;;;;3.85;2.40;;;;;;;13.58;40.79;96822.06;5005475;28;20204;-58
2021/01/01 10:53:48;;;;;;;3.08;2.67;;;;;;;13.81;41.72;96787.47;5006795;28;20045;-58
2021/01/01 10:56:26;;;;;;;2.88;1.90;;;;;;;13.80;40.39;96788.69;5006381;28;20029;-60
2021/01/01 10:58:52;;;;;;;2.33;2.13;;;;;;;13.57;40.46;96736.97;5006533;28;20072;-60
2021/01/01 11:01:19;;;;;;;4.30;2.15;;;;;;;13.95;38.50;96781.91;5006439;28;20030;-59
2021/01/01 11:03:45;;;;;;;3.60;2.50;;;;;;;13.68;38.23;96751.69;5006932;28;20394;-60
2021/01/01 11:06:10;;;;;;;5.45;2.63;;;;;;;13.96;38.28;96766.81;5021560;28;20100;-59
2021/01/01 11:08:38;;;;;;;6.78;3.65;;;;;;;13.84;37.74;96759.66;5006424;28;20034;-61
2021/01/01 11:11:04;;;;;;;3.42;2.28;;;;;;;13.97;38.50;96785.09;5004600;28;20037;-61
2021/01/01 11:13:30;;;;;;;6.78;3.03;;;;;;;13.19;38.08;96651.50;5007016;28;20034;-60
2021/01/01 12:25:14;;;;;;;8.10;4.85;;;;;;;11.28;38.56;96456.16;5005136;28;20606;-62
2021/01/01 12:27:42;;;;;;;5.63;3.75;;;;;;;13.58;38.31;96797.00;5005065;28;20431;-60
2021/01/01 12:30:09;;;;;;;6.82;4.18;;;;;;;13.53;38.64;96791.06;5005103;28;20072;-59
2021/01/01 12:32:37;;;;;;;4.88;2.42;;;;;;;13.58;37.92;96805.34;5003452;28;20037;-59
2021/01/01 12:35:04;;;;;;;5.10;3.03;;;;;;;13.63;38.44;96804.97;5004783;28;20030;-60